Bassel Al-Assad International Airport


Codes: OSLK/LTK
Name: Bassel Al-Assad International Airport
City: Latakia
Country: Syria
Elevation: 157 ft.
Wikipedia:

Photos at Bassel Al-Assad International Airport


   Photos courtesy of SpottingLog. You can add your own sightings and photos by signing up for a free trial today.



No photos found.

Weather at Bassel Al-Assad International Airport


Time (UTC)DescriptionTempratureWindCloud coverageVisibilityPressureHumidity
23-May-2024 21:00Few Clouds22°C11 mph, S22%10000m1009hPa81%
24-May-2024 00:00Scattered Clouds21°C11 mph, S25%10000m1008hPa83%
24-May-2024 03:00Light Rain21°C18 mph, S77%10000m1008hPa80%
24-May-2024 06:00Light Rain21°C22 mph, SW88%10000m1009hPa83%
24-May-2024 09:00Light Rain22°C27 mph, SW53%10000m1010hPa82%
24-May-2024 12:00Light Rain23°C25 mph, SW32%10000m1009hPa78%
24-May-2024 15:00Light Rain21°C20 mph, SW11%10000m1009hPa84%
24-May-2024 18:00Moderate Rain20°C18 mph, SW25%5977m1010hPa86%
24-May-2024 21:00Light Rain21°C22 mph, SW69%10000m1009hPa87%
25-May-2024 00:00Light Rain20°C16 mph, S60%10000m1008hPa88%
25-May-2024 03:00Light Rain20°C13 mph, S22%10000m1008hPa86%
25-May-2024 06:00Light Rain22°C20 mph, SW14%10000m1009hPa77%
25-May-2024 09:00Light Rain23°C20 mph, SW10%10000m1010hPa72%
25-May-2024 12:00Light Rain23°C16 mph, SW11%10000m1010hPa75%
25-May-2024 15:00Light Rain22°C16 mph, SW4%10000m1009hPa81%
25-May-2024 18:00Light Rain20°C9 mph, S7%10000m1011hPa90%
25-May-2024 21:00Light Rain20°C9 mph, SE11%10000m1011hPa85%
26-May-2024 00:00Light Rain20°C7 mph, S6%10000m1010hPa85%
26-May-2024 03:00Scattered Clouds21°C11 mph, S32%10000m1011hPa82%
26-May-2024 06:00Scattered Clouds22°C13 mph, S43%10000m1012hPa73%
26-May-2024 09:00Clear Sky23°C13 mph, SW4%10000m1014hPa71%
26-May-2024 12:00Clear Sky23°C9 mph, SW2%10000m1012hPa64%
26-May-2024 15:00Clear Sky22°C9 mph, SW0%10000m1013hPa71%
26-May-2024 18:00Clear Sky21°C7 mph, S0%10000m1013hPa80%
26-May-2024 21:00Clear Sky20°C7 mph, SE1%10000m1013hPa78%
27-May-2024 00:00Clear Sky20°C4 mph, SE2%10000m1012hPa68%
27-May-2024 03:00Clear Sky20°C4 mph, E0%10000m1012hPa59%
27-May-2024 06:00Clear Sky23°C4 mph, NW0%10000m1013hPa47%
27-May-2024 09:00Scattered Clouds25°C9 mph, W32%10000m1013hPa48%
27-May-2024 12:00Few Clouds27°C7 mph, NW19%10000m1012hPa47%
27-May-2024 15:00Clear Sky25°C13 mph, NW8%10000m1011hPa57%
27-May-2024 18:00Few Clouds22°C13 mph, NE17%10000m1009hPa63%
27-May-2024 21:00Light Rain21°C11 mph, E65%10000m1009hPa69%
28-May-2024 00:00Light Rain20°C4 mph, E33%10000m1009hPa70%
28-May-2024 03:00Few Clouds21°C2 mph, SE11%10000m1010hPa62%
28-May-2024 06:00Clear Sky24°C7 mph, SW5%10000m1012hPa56%
28-May-2024 09:00Clear Sky24°C7 mph, W0%10000m1013hPa64%
28-May-2024 12:00Clear Sky25°C7 mph, W0%10000m1012hPa61%
28-May-2024 15:00Clear Sky24°C2 mph, W0%10000m1011hPa60%
28-May-2024 18:00Scattered Clouds22°C0 mph, NW35%10000m1012hPa70%